Flight Track Log - Related Links

Times and Time Zones

All times are in EDT time to prevent confusion due to time zone crossing. See the N175MT flight status page for this flight to view local times or setup timezone preferences in your user account.

Time Position Orientation Groundspeed Altitude Reporting Facility
EDT Latitude Longitude Course Direction KTS MPH feet Rate Location/Type
Thu 09:56:27 AM 31.1358 -81.3319 33° Northeast 133 153 7,500  Level Jacksonville Center
Thu 09:57:27 AM 31.1711 -81.3047 33° Northeast 128 147 7,500  Level Jacksonville Center
Thu 09:58:27 AM 31.2022 -81.2797 34° Northeast 122 140 7,500  Level Jacksonville Center
Thu 09:59:27 AM 31.2353 -81.2575 30° Northeast 127 146 7,500  Level Jacksonville Center
Thu 10:00:27 AM 31.2642 -81.2375 31° Northeast 132 152 7,500  Level Jacksonville Center
Thu 10:01:27 AM 31.2972 -81.2150 30° Northeast 132 152 7,500  Level Jacksonville Center
Thu 10:02:27 AM 31.3344 -81.1875 32° Northeast 137 158 7,500  Level Jacksonville Center
Thu 10:03:27 AM 31.3678 -81.1650 30° Northeast 137 158 7,500  Level Jacksonville Center
Thu 10:04:27 AM 31.3967 -81.1450 31° Northeast 137 158 7,500  Level Jacksonville Center
Thu 10:05:27 AM 31.4297 -81.1200 33° Northeast 137 158 7,500  Level Jacksonville Center
Thu 10:06:27 AM 31.4647 -81.0950 31° Northeast 137 158 7,500 50 Level Jacksonville Center
Thu 10:07:27 AM 31.4958 -81.0700 34° Northeast 137 158 7,600 50 Climbing Jacksonville Center
Thu 10:08:27 AM 31.5289 -81.0450 33° Northeast 137 158 7,600  Level Jacksonville Center
Thu 10:09:27 AM 31.5597 -81.0225 32° Northeast 137 158 7,600  Level Jacksonville Center
Thu 10:10:27 AM 31.5928 -81.0000 30° Northeast 137 158 7,600  Level Jacksonville Center
Thu 10:11:27 AM 31.6300 -80.9772 28° Northeast 137 158 7,600  Level Jacksonville Center
Thu 10:12:27 AM 31.6631 -80.9522 33° Northeast 137 158 7,600  Level Jacksonville Center
Thu 10:14:00 AM 31.7059 -80.9114 39° Northeast  Level FlightAware Approximate
Thu 10:21:00 AM 31.8993 -80.7267 39° Northeast  Level FlightAware Approximate
Thu 10:22:00 AM 31.9269 -80.7002 39° Northeast  Level FlightAware Approximate
Thu 10:23:00 AM 31.9545 -80.6738 39° Northeast  Level FlightAware Approximate
Thu 10:24:00 AM 31.9821 -80.6473 39° Northeast  Level FlightAware Approximate
Thu 10:25:00 AM 32.0097 -80.6208 39° Northeast  Level FlightAware Approximate
Thu 10:26:00 AM 32.0373 -80.5943 39° Northeast  Level FlightAware Approximate
Thu 10:27:00 AM 32.0649 -80.5677 39° Northeast  Level FlightAware Approximate
Thu 10:28:00 AM 32.0942 -80.5409 35° Northeast  Level FlightAware Approximate
Thu 10:29:00 AM 32.1233 -80.5166 35° Northeast  Level FlightAware Approximate
Thu 10:30:00 AM 32.1523 -80.4923 35° Northeast  Level FlightAware Approximate
Thu 10:31:00 AM 32.1814 -80.4680 35° Northeast  Level FlightAware Approximate
Thu 10:32:00 AM 32.2104 -80.4437 35° Northeast  Level FlightAware Approximate
Thu 10:33:00 AM 32.2394 -80.4194 35° Northeast  Level FlightAware Approximate
Thu 10:34:00 AM 32.2684 -80.3950 35° Northeast  Level FlightAware Approximate
Thu 10:35:00 AM 32.2975 -80.3706 35° Northeast  Level FlightAware Approximate
Thu 10:36:00 AM 32.3265 -80.3463 35° Northeast  Level FlightAware Approximate
Thu 10:37:00 AM 32.3555 -80.3219 35° Northeast  Level FlightAware Approximate
Thu 10:38:00 AM 32.3845 -80.2974 35° Northeast  Level FlightAware Approximate
Thu 10:39:00 AM 32.4135 -80.2730 35° Northeast  Level FlightAware Approximate
Thu 10:40:00 AM 32.4425 -80.2486 35° Northeast  Level FlightAware Approximate
Thu 10:41:00 AM 32.4715 -80.2241 35° Northeast  Level FlightAware Approximate
Thu 10:42:00 AM 32.5004 -80.1996 35° Northeast  Level FlightAware Approximate
Thu 10:43:00 AM 32.5296 -80.1754 35° Northeast  Level FlightAware Approximate
Thu 10:44:00 AM 32.5587 -80.1512 35° Northeast  Level FlightAware Approximate
Thu 10:45:00 AM 32.5879 -80.1270 35° Northeast  Level FlightAware Approximate
Thu 10:46:00 AM 32.6170 -80.1027 35° Northeast  Level FlightAware Approximate
Thu 10:47:00 AM 32.6461 -80.0784 35° Northeast  Level FlightAware Approximate
Thu 10:48:00 AM 32.6753 -80.0541 35° Northeast  Level FlightAware Approximate
Thu 10:49:00 AM 32.7044 -80.0298 35° Northeast  Level FlightAware Approximate
Thu 10:50:00 AM 32.7335 -80.0055 35° Northeast  Level FlightAware Approximate
Thu 10:51:00 AM 32.7626 -79.9812 35° Northeast  Level FlightAware Approximate
Thu 10:52:00 AM 32.7917 -79.9568 35° Northeast  Level FlightAware Approximate
Thu 10:53:00 AM 32.8208 -79.9325 35° Northeast  Level FlightAware Approximate
Thu 10:54:00 AM 32.8499 -79.9081 35° Northeast  Level FlightAware Approximate
Thu 10:55:00 AM 32.8790 -79.8837 35° Northeast  Level FlightAware Approximate
Thu 10:56:00 AM 32.9081 -79.8593 35° Northeast  Level FlightAware Approximate
Thu 10:57:00 AM 32.9372 -79.8348 35° Northeast  Level FlightAware Approximate
Thu 10:58:00 AM 32.9663 -79.8104 35° Northeast  Level FlightAware Approximate
Thu 10:59:00 AM 32.9953 -79.7859 35° Northeast  Level FlightAware Approximate
Thu 11:00:00 AM 33.0244 -79.7614 35° Northeast  Level FlightAware Approximate
Thu 11:01:00 AM 33.0535 -79.7369 35° Northeast  Level FlightAware Approximate
Thu 11:02:00 AM 33.0825 -79.7124 35° Northeast  Level FlightAware Approximate
Thu 11:03:00 AM 33.1116 -79.6879 35° Northeast  Level FlightAware Approximate
Thu 11:04:00 AM 33.1406 -79.6634 35° Northeast  Level FlightAware Approximate
Thu 11:05:00 AM 33.1697 -79.6388 35° Northeast  Level FlightAware Approximate
Thu 11:06:00 AM 33.1987 -79.6142 35° Northeast  Level FlightAware Approximate
Thu 11:07:00 AM 33.2277 -79.5896 35° Northeast  Level FlightAware Approximate
Thu 11:08:00 AM 33.2567 -79.5650 35° Northeast  Level FlightAware Approximate
Thu 11:09:00 AM 33.2858 -79.5404 35° Northeast  Level FlightAware Approximate
Thu 11:10:00 AM 33.3148 -79.5157 35° Northeast  Level FlightAware Approximate
Thu 11:11:00 AM 33.3438 -79.4911 35° Northeast  Level FlightAware Approximate
Thu 11:12:00 AM 33.3729 -79.4665 35° Northeast  Level FlightAware Approximate
Thu 11:13:00 AM 33.4019 -79.4419 35° Northeast  Level FlightAware Approximate
Thu 11:14:00 AM 33.4310 -79.4173 35° Northeast  Level FlightAware Approximate
Thu 11:15:00 AM 33.4600 -79.3926 35° Northeast  Level FlightAware Approximate
Thu 11:16:00 AM 33.4891 -79.3680 35° Northeast  Level FlightAware Approximate
Thu 11:17:00 AM 33.5181 -79.3433 35° Northeast  Level FlightAware Approximate
Thu 11:18:00 AM 33.5471 -79.3186 35° Northeast  Level FlightAware Approximate
Thu 11:19:00 AM 33.5761 -79.2939 35° Northeast  Level FlightAware Approximate
Thu 11:20:00 AM 33.6052 -79.2691 35° Northeast  Level FlightAware Approximate
Thu 11:21:00 AM 33.6342 -79.2444 35° Northeast  Level FlightAware Approximate
Thu 11:22:00 AM 33.6632 -79.2196 35° Northeast  Level FlightAware Approximate
Thu 11:23:00 AM 33.6922 -79.1949 35° Northeast  Level FlightAware Approximate
Thu 11:24:00 AM 33.7212 -79.1701 35° Northeast  Level FlightAware Approximate
Thu 11:25:00 AM 33.7502 -79.1452 35° Northeast  Level FlightAware Approximate
Thu 11:26:00 AM 33.7792 -79.1204 35° Northeast  Level FlightAware Approximate
Thu 11:27:00 AM 33.8082 -79.0956 35° Northeast  Level FlightAware Approximate
Thu 11:28:00 AM 33.8371 -79.0707 35° Northeast  Level FlightAware Approximate
Thu 11:29:00 AM 33.8661 -79.0458 35° Northeast  Level FlightAware Approximate
Thu 11:30:00 AM 33.8951 -79.0209 36° Northeast  Level FlightAware Approximate
Thu 11:31:00 AM 33.9246 -78.9970 34° Northeast  Level FlightAware Approximate
Thu 11:32:00 AM 33.9542 -78.9733 34° Northeast  Level FlightAware Approximate
Thu 11:33:00 AM 33.9838 -78.9495 40° Northeast  Level FlightAware Approximate
Thu 11:34:00 AM 34.0112 -78.9221 40° Northeast  Level FlightAware Approximate
Thu 11:35:00 AM 34.0387 -78.8947 40° Northeast  Level FlightAware Approximate
Thu 11:36:00 AM 34.0675 -78.8697 33° Northeast  Level FlightAware Approximate
Thu 11:37:00 AM 34.0975 -78.8465 33° Northeast  Level FlightAware Approximate
Thu 11:38:00 AM 34.1274 -78.8232 33° Northeast  Level FlightAware Approximate
Thu 11:39:00 AM 34.1573 -78.7999 33° Northeast  Level FlightAware Approximate
Thu 11:40:00 AM 34.1872 -78.7766 33° Northeast  Level FlightAware Approximate
Thu 11:41:00 AM 34.2157 -78.7510 40° Northeast  Level FlightAware Approximate
Thu 11:42:00 AM 34.2431 -78.7236 40° Northeast  Level FlightAware Approximate
Thu 11:43:00 AM 34.2667 -78.7000 40° Northeast  Level FlightAware Approximate
Thu 11:44:00 AM 34.2729 -78.7150 40° Northeast  Level Estimated
Thu 11:45:00 AM 34.2729 -78.7150 40° Northeast  Level Estimated
Thu 11:46:00 AM 34.2729 -78.7150 40° Northeast  Level Estimated
Thu 11:47:00 AM 34.2729 -78.7150 40° Northeast  Level Estimated
Thu 11:48:00 AM 34.2729 -78.7150 40° Northeast  Level Estimated
Thu 11:49:00 AM 34.2729 -78.7150 40° Northeast  Level Estimated
Thu 11:50:00 AM 34.2729 -78.7150 40° Northeast  Level Estimated
Thu 11:51:00 AM 34.2729 -78.7150 40° Northeast  Level Estimated
Thu 11:52:00 AM 34.2729 -78.7150 40° Northeast  Level Estimated
Thu 11:53:00 AM 34.2729 -78.7150 40° Northeast  Level Estimated
Thu 11:54:00 AM 34.2729 -78.7150 40° Northeast  Level Estimated
Thu 11:55:00 AM 34.2729 -78.7150 40° Northeast  Level Estimated
Thu 11:56:00 AM 34.2729 -78.7150 40° Northeast  Level Estimated
Thu 11:57:00 AM 34.2729 -78.7150 40° Northeast  Level Estimated
Thu 11:58:00 AM 34.2729 -78.7150 40° Northeast  Level Estimated
Thu 11:59:00 AM 34.2729 -78.7150 40° Northeast  Level Estimated
Thu 12:00:00 PM 34.2729 -78.7150 40° Northeast  Level Estimated

Login

Don't have an account? Register now (free) for customized features, flight alerts, and more!